sensor_id;sensor_type;location;lat;lon;timestamp;temperature;humidity
46608;DHT22;32330;51.936;7.184;2023-03-08T04:48:37;1.10;99.90
46608;DHT22;32330;51.936;7.184;2023-03-08T04:51:06;1.10;99.90
46608;DHT22;32330;51.936;7.184;2023-03-08T04:53:35;1.10;99.90
46608;DHT22;32330;51.936;7.184;2023-03-08T04:56:05;1.10;99.90
46608;DHT22;32330;51.936;7.184;2023-03-08T04:58:32;1.00;99.90
46608;DHT22;32330;51.936;7.184;2023-03-08T05:01:06;1.00;99.90
46608;DHT22;32330;51.936;7.184;2023-03-08T05:03:33;1.00;99.90
46608;DHT22;32330;51.936;7.184;2023-03-08T05:06:02;1.00;99.90
46608;DHT22;32330;51.936;7.184;2023-03-08T05:08:29;1.00;99.90
46608;DHT22;32330;51.936;7.184;2023-03-08T05:10:57;1.00;99.90
46608;DHT22;32330;51.936;7.184;2023-03-08T05:13:27;1.10;99.90
46608;DHT22;32330;51.936;7.184;2023-03-08T05:15:55;1.10;99.90
46608;DHT22;32330;51.936;7.184;2023-03-08T05:18:22;1.10;99.90
46608;DHT22;32330;51.936;7.184;2023-03-08T05:20:53;1.10;99.90
46608;DHT22;32330;51.936;7.184;2023-03-08T05:23:23;1.20;99.90
46608;DHT22;32330;51.936;7.184;2023-03-08T05:25:52;1.10;99.90
46608;DHT22;32330;51.936;7.184;2023-03-08T05:28:20;1.10;99.90
46608;DHT22;32330;51.936;7.184;2023-03-08T05:30:47;1.20;99.90
46608;DHT22;32330;51.936;7.184;2023-03-08T05:33:16;1.10;99.90
46608;DHT22;32330;51.936;7.184;2023-03-08T05:36:28;1.10;99.90
46608;DHT22;32330;51.936;7.184;2023-03-08T05:38:58;1.20;99.90
46608;DHT22;32330;51.936;7.184;2023-03-08T05:41:33;1.20;99.90
46608;DHT22;32330;51.936;7.184;2023-03-08T05:44:01;1.20;99.90
46608;DHT22;32330;51.936;7.184;2023-03-08T05:46:31;1.20;99.90
46608;DHT22;32330;51.936;7.184;2023-03-08T05:49:00;1.20;99.90
46608;DHT22;32330;51.936;7.184;2023-03-08T05:51:30;1.20;99.90
46608;DHT22;32330;51.936;7.184;2023-03-08T05:53:59;1.20;99.90
46608;DHT22;32330;51.936;7.184;2023-03-08T05:56:27;1.20;99.90
46608;DHT22;32330;51.936;7.184;2023-03-08T05:59:01;1.20;99.90
46608;DHT22;32330;51.936;7.184;2023-03-08T06:01:29;1.20;99.90
46608;DHT22;32330;51.936;7.184;2023-03-08T06:04:05;1.20;99.90
46608;DHT22;32330;51.936;7.184;2023-03-08T06:06:35;1.20;99.90
46608;DHT22;32330;51.936;7.184;2023-03-08T06:09:05;1.20;99.90
46608;DHT22;32330;51.936;7.184;2023-03-08T06:11:36;1.20;99.90
46608;DHT22;32330;51.936;7.184;2023-03-08T06:14:04;1.20;99.90
46608;DHT22;32330;51.936;7.184;2023-03-08T06:16:33;1.20;99.90
46608;DHT22;32330;51.936;7.184;2023-03-08T06:19:00;1.20;99.90
46608;DHT22;32330;51.936;7.184;2023-03-08T06:21:28;1.20;99.90
46608;DHT22;32330;51.936;7.184;2023-03-08T06:23:59;1.20;99.90
46608;DHT22;32330;51.936;7.184;2023-03-08T06:26:28;1.20;99.90
46608;DHT22;32330;51.936;7.184;2023-03-08T06:28:55;1.20;99.90
46608;DHT22;32330;51.936;7.184;2023-03-08T06:31:26;1.20;99.90
46608;DHT22;32330;51.936;7.184;2023-03-08T06:33:53;1.20;99.90
46608;DHT22;32330;51.936;7.184;2023-03-08T06:36:24;1.20;99.90
46608;DHT22;32330;51.936;7.184;2023-03-08T06:38:50;1.30;99.90
46608;DHT22;32330;51.936;7.184;2023-03-08T06:41:18;1.30;99.90
46608;DHT22;32330;51.936;7.184;2023-03-08T06:43:51;1.30;99.90
46608;DHT22;32330;51.936;7.184;2023-03-08T06:46:18;1.30;99.90
46608;DHT22;32330;51.936;7.184;2023-03-08T06:48:46;1.30;99.90
46608;DHT22;32330;51.936;7.184;2023-03-08T06:51:14;1.40;99.90
46608;DHT22;32330;51.936;7.184;2023-03-08T06:53:44;1.40;99.90
46608;DHT22;32330;51.936;7.184;2023-03-08T06:56:15;1.40;99.90
46608;DHT22;32330;51.936;7.184;2023-03-08T06:58:42;1.40;99.90
46608;DHT22;32330;51.936;7.184;2023-03-08T07:01:11;1.40;99.90
46608;DHT22;32330;51.936;7.184;2023-03-08T07:03:39;1.40;99.90
46608;DHT22;32330;51.936;7.184;2023-03-08T07:06:08;1.40;99.90
46608;DHT22;32330;51.936;7.184;2023-03-08T07:08:36;1.40;99.90
46608;DHT22;32330;51.936;7.184;2023-03-08T07:11:04;1.50;99.90
46608;DHT22;32330;51.936;7.184;2023-03-08T07:13:31;1.50;99.90
46608;DHT22;32330;51.936;7.184;2023-03-08T07:15:58;1.50;99.90
46608;DHT22;32330;51.936;7.184;2023-03-08T07:18:26;1.50;99.90
46608;DHT22;32330;51.936;7.184;2023-03-08T07:20:54;1.50;99.90
46608;DHT22;32330;51.936;7.184;2023-03-08T07:23:21;1.50;99.90
46608;DHT22;32330;51.936;7.184;2023-03-08T07:25:48;1.50;99.90
46608;DHT22;32330;51.936;7.184;2023-03-08T07:28:15;1.50;99.90
46608;DHT22;32330;51.936;7.184;2023-03-08T07:30:45;1.60;99.90
46608;DHT22;32330;51.936;7.184;2023-03-08T07:33:13;1.60;99.90
46608;DHT22;32330;51.936;7.184;2023-03-08T07:35:41;1.60;99.90
46608;DHT22;32330;51.936;7.184;2023-03-08T07:38:08;1.70;99.90
46608;DHT22;32330;51.936;7.184;2023-03-08T07:40:37;1.70;99.90
46608;DHT22;32330;51.936;7.184;2023-03-08T07:43:04;1.60;99.90
46608;DHT22;32330;51.936;7.184;2023-03-08T07:45:50;1.70;99.90
46608;DHT22;32330;51.936;7.184;2023-03-08T07:48:17;1.70;99.90
46608;DHT22;32330;51.936;7.184;2023-03-08T07:50:49;1.70;99.90
46608;DHT22;32330;51.936;7.184;2023-03-08T07:53:16;1.70;99.90
46608;DHT22;32330;51.936;7.184;2023-03-08T07:55:43;1.80;99.90
46608;DHT22;32330;51.936;7.184;2023-03-08T07:58:10;1.80;99.90
46608;DHT22;32330;51.936;7.184;2023-03-08T08:00:37;1.80;99.90
46608;DHT22;32330;51.936;7.184;2023-03-08T08:03:04;1.90;99.90
46608;DHT22;32330;51.936;7.184;2023-03-08T08:05:30;1.90;99.90
46608;DHT22;32330;51.936;7.184;2023-03-08T08:07:59;1.80;99.90
46608;DHT22;32330;51.936;7.184;2023-03-08T08:10:26;1.80;99.90
46608;DHT22;32330;51.936;7.184;2023-03-08T08:12:53;1.90;99.90
46608;DHT22;32330;51.936;7.184;2023-03-08T08:15:19;1.90;99.90
46608;DHT22;32330;51.936;7.184;2023-03-08T08:17:48;1.90;99.90
46608;DHT22;32330;51.936;7.184;2023-03-08T08:20:15;1.90;99.90
46608;DHT22;32330;51.936;7.184;2023-03-08T08:22:42;1.90;99.90
46608;DHT22;32330;51.936;7.184;2023-03-08T08:25:10;1.90;99.90
46608;DHT22;32330;51.936;7.184;2023-03-08T08:27:37;1.90;99.90
46608;DHT22;32330;51.936;7.184;2023-03-08T08:30:05;2.00;99.90
46608;DHT22;32330;51.936;7.184;2023-03-08T08:32:32;2.00;99.90
46608;DHT22;32330;51.936;7.184;2023-03-08T08:34:59;2.00;99.90
46608;DHT22;32330;51.936;7.184;2023-03-08T08:37:27;2.00;99.90
46608;DHT22;32330;51.936;7.184;2023-03-08T08:39:54;2.00;99.90
46608;DHT22;32330;51.936;7.184;2023-03-08T08:42:22;2.00;99.90
46608;DHT22;32330;51.936;7.184;2023-03-08T08:44:51;2.00;99.90
46608;DHT22;32330;51.936;7.184;2023-03-08T08:47:18;2.10;99.90
46608;DHT22;32330;51.936;7.184;2023-03-08T08:49:45;2.00;99.90
46608;DHT22;32330;51.936;7.184;2023-03-08T08:52:12;2.10;99.90
46608;DHT22;32330;51.936;7.184;2023-03-08T08:54:39;2.10;99.90
46608;DHT22;32330;51.936;7.184;2023-03-08T08:57:06;2.10;99.90
46608;DHT22;32330;51.936;7.184;2023-03-08T08:59:35;2.10;99.90
46608;DHT22;32330;51.936;7.184;2023-03-08T09:02:02;2.10;99.90
46608;DHT22;32330;51.936;7.184;2023-03-08T09:04:28;2.20;99.90
46608;DHT22;32330;51.936;7.184;2023-03-08T09:06:55;2.20;99.90
46608;DHT22;32330;51.936;7.184;2023-03-08T09:09:22;2.30;99.90
46608;DHT22;32330;51.936;7.184;2023-03-08T09:11:54;2.30;99.90
46608;DHT22;32330;51.936;7.184;2023-03-08T09:14:21;2.20;99.90
46608;DHT22;32330;51.936;7.184;2023-03-08T09:16:49;2.30;99.90
46608;DHT22;32330;51.936;7.184;2023-03-08T09:19:17;2.30;99.90
46608;DHT22;32330;51.936;7.184;2023-03-08T09:21:44;2.30;99.90
46608;DHT22;32330;51.936;7.184;2023-03-08T09:24:11;2.40;99.90
46608;DHT22;32330;51.936;7.184;2023-03-08T09:26:38;2.40;99.90
46608;DHT22;32330;51.936;7.184;2023-03-08T09:29:05;2.40;99.90
46608;DHT22;32330;51.936;7.184;2023-03-08T09:31:33;2.40;99.90
46608;DHT22;32330;51.936;7.184;2023-03-08T09:34:02;2.30;99.90
46608;DHT22;32330;51.936;7.184;2023-03-08T09:36:33;2.30;99.90
46608;DHT22;32330;51.936;7.184;2023-03-08T09:39:00;2.40;99.90
46608;DHT22;32330;51.936;7.184;2023-03-08T09:44:39;2.40;99.90
46608;DHT22;32330;51.936;7.184;2023-03-08T09:47:18;2.50;99.90
46608;DHT22;32330;51.936;7.184;2023-03-08T09:49:51;2.50;99.90
46608;DHT22;32330;51.936;7.184;2023-03-08T09:52:24;2.50;99.90
46608;DHT22;32330;51.936;7.184;2023-03-08T09:54:55;2.60;99.90
46608;DHT22;32330;51.936;7.184;2023-03-08T09:57:26;2.60;99.90
46608;DHT22;32330;51.936;7.184;2023-03-08T09:59:56;2.50;99.90
46608;DHT22;32330;51.936;7.184;2023-03-08T10:02:29;2.60;99.90
46608;DHT22;32330;51.936;7.184;2023-03-08T10:05:06;2.50;99.90
46608;DHT22;32330;51.936;7.184;2023-03-08T10:07:45;2.50;99.90
46608;DHT22;32330;51.936;7.184;2023-03-08T10:10:26;2.60;99.90
46608;DHT22;32330;51.936;7.184;2023-03-08T10:13:07;2.60;99.90
46608;DHT22;32330;51.936;7.184;2023-03-08T10:15:40;2.60;99.90
46608;DHT22;32330;51.936;7.184;2023-03-08T10:18:12;2.60;99.90
46608;DHT22;32330;51.936;7.184;2023-03-08T10:20:43;2.60;99.90
46608;DHT22;32330;51.936;7.184;2023-03-08T10:23:14;2.80;99.90
46608;DHT22;32330;51.936;7.184;2023-03-08T10:25:41;2.80;99.90
46608;DHT22;32330;51.936;7.184;2023-03-08T10:28:12;2.80;99.90
46608;DHT22;32330;51.936;7.184;2023-03-08T10:30:43;2.80;99.90
46608;DHT22;32330;51.936;7.184;2023-03-08T10:33:12;2.90;99.90
46608;DHT22;32330;51.936;7.184;2023-03-08T10:35:54;2.90;99.90
46608;DHT22;32330;51.936;7.184;2023-03-08T10:38:22;2.90;99.90
46608;DHT22;32330;51.936;7.184;2023-03-08T10:40:58;2.90;99.90
46608;DHT22;32330;51.936;7.184;2023-03-08T10:43:27;2.90;99.90
46608;DHT22;32330;51.936;7.184;2023-03-08T10:46:00;2.90;99.90
46608;DHT22;32330;51.936;7.184;2023-03-08T10:48:27;2.90;99.90
46608;DHT22;32330;51.936;7.184;2023-03-08T10:51:01;3.00;99.90
46608;DHT22;32330;51.936;7.184;2023-03-08T10:53:31;3.00;99.90
46608;DHT22;32330;51.936;7.184;2023-03-08T10:55:59;3.00;99.90
46608;DHT22;32330;51.936;7.184;2023-03-08T10:58:33;3.20;99.90
46608;DHT22;32330;51.936;7.184;2023-03-08T11:01:02;3.30;99.90
46608;DHT22;32330;51.936;7.184;2023-03-08T11:03:30;3.40;99.90
46608;DHT22;32330;51.936;7.184;2023-03-08T11:06:00;3.50;99.90
46608;DHT22;32330;51.936;7.184;2023-03-08T11:08:30;3.50;99.90
46608;DHT22;32330;51.936;7.184;2023-03-08T11:11:02;3.50;99.90
46608;DHT22;32330;51.936;7.184;2023-03-08T11:13:31;3.50;99.90
46608;DHT22;32330;51.936;7.184;2023-03-08T11:16:07;3.40;99.90
46608;DHT22;32330;51.936;7.184;2023-03-08T11:18:49;3.50;99.90
46608;DHT22;32330;51.936;7.184;2023-03-08T11:21:23;3.50;99.90
46608;DHT22;32330;51.936;7.184;2023-03-08T11:24:02;3.40;99.90
46608;DHT22;32330;51.936;7.184;2023-03-08T11:26:37;3.40;99.90
46608;DHT22;32330;51.936;7.184;2023-03-08T11:29:16;3.30;99.90
46608;DHT22;32330;51.936;7.184;2023-03-08T11:31:53;3.40;99.90
46608;DHT22;32330;51.936;7.184;2023-03-08T11:34:44;3.50;99.90
46608;DHT22;32330;51.936;7.184;2023-03-08T11:37:23;3.60;99.90
46608;DHT22;32330;51.936;7.184;2023-03-08T11:39:57;3.50;99.90
46608;DHT22;32330;51.936;7.184;2023-03-08T11:42:38;3.60;99.90
46608;DHT22;32330;51.936;7.184;2023-03-08T11:45:17;3.50;99.90
46608;DHT22;32330;51.936;7.184;2023-03-08T11:47:56;3.40;99.90
46608;DHT22;32330;51.936;7.184;2023-03-08T11:50:30;3.50;99.90
46608;DHT22;32330;51.936;7.184;2023-03-08T11:53:08;3.40;99.90
46608;DHT22;32330;51.936;7.184;2023-03-08T11:55:48;3.50;99.90
46608;DHT22;32330;51.936;7.184;2023-03-08T11:58:25;3.50;99.90
46608;DHT22;32330;51.936;7.184;2023-03-08T12:00:55;3.60;99.90
46608;DHT22;32330;51.936;7.184;2023-03-08T12:03:29;3.60;99.90
46608;DHT22;32330;51.936;7.184;2023-03-08T12:06:00;3.50;99.90
46608;DHT22;32330;51.936;7.184;2023-03-08T12:08:34;3.50;99.90
46608;DHT22;32330;51.936;7.184;2023-03-08T12:11:04;3.70;99.90
46608;DHT22;32330;51.936;7.184;2023-03-08T12:13:36;3.80;99.90
46608;DHT22;32330;51.936;7.184;2023-03-08T12:16:09;3.70;99.90
46608;DHT22;32330;51.936;7.184;2023-03-08T12:18:40;3.60;99.90
46608;DHT22;32330;51.936;7.184;2023-03-08T12:21:17;3.60;99.90
46608;DHT22;32330;51.936;7.184;2023-03-08T12:23:54;3.70;99.90
46608;DHT22;32330;51.936;7.184;2023-03-08T12:26:26;3.70;99.90
46608;DHT22;32330;51.936;7.184;2023-03-08T12:28:58;3.60;99.90
46608;DHT22;32330;51.936;7.184;2023-03-08T12:31:34;3.60;99.90
46608;DHT22;32330;51.936;7.184;2023-03-08T12:34:11;3.50;99.90
46608;DHT22;32330;51.936;7.184;2023-03-08T12:37:33;3.60;99.90
46608;DHT22;32330;51.936;7.184;2023-03-08T12:40:04;3.50;99.90
46608;DHT22;32330;51.936;7.184;2023-03-08T12:42:35;3.80;99.90
46608;DHT22;32330;51.936;7.184;2023-03-08T12:45:25;3.60;99.90
46608;DHT22;32330;51.936;7.184;2023-03-08T12:47:55;3.70;99.90
46608;DHT22;32330;51.936;7.184;2023-03-08T12:50:23;3.70;99.90
46608;DHT22;32330;51.936;7.184;2023-03-08T12:52:50;3.60;99.90
46608;DHT22;32330;51.936;7.184;2023-03-08T12:55:20;3.60;99.90
46608;DHT22;32330;51.936;7.184;2023-03-08T12:57:58;3.60;99.90
46608;DHT22;32330;51.936;7.184;2023-03-08T13:00:28;3.60;99.90
46608;DHT22;32330;51.936;7.184;2023-03-08T13:03:04;3.60;99.90
46608;DHT22;32330;51.936;7.184;2023-03-08T13:05:35;3.70;99.90
46608;DHT22;32330;51.936;7.184;2023-03-08T13:08:19;3.60;99.90
46608;DHT22;32330;51.936;7.184;2023-03-08T13:10:58;3.60;99.90
46608;DHT22;32330;51.936;7.184;2023-03-08T13:13:32;3.50;99.90
46608;DHT22;32330;51.936;7.184;2023-03-08T13:16:19;3.50;99.90
46608;DHT22;32330;51.936;7.184;2023-03-08T13:18:48;3.60;99.90
46608;DHT22;32330;51.936;7.184;2023-03-08T13:21:25;3.50;99.90
46608;DHT22;32330;51.936;7.184;2023-03-08T13:23:59;3.50;99.90
46608;DHT22;32330;51.936;7.184;2023-03-08T13:26:45;3.50;99.90
46608;DHT22;32330;51.936;7.184;2023-03-08T13:29:16;3.50;99.90
46608;DHT22;32330;51.936;7.184;2023-03-08T13:31:43;3.40;99.90
46608;DHT22;32330;51.936;7.184;2023-03-08T13:34:26;3.50;99.90
46608;DHT22;32330;51.936;7.184;2023-03-08T13:36:53;3.50;99.90
46608;DHT22;32330;51.936;7.184;2023-03-08T13:39:22;3.60;99.90
46608;DHT22;32330;51.936;7.184;2023-03-08T13:41:50;3.60;99.90
46608;DHT22;32330;51.936;7.184;2023-03-08T13:44:20;3.60;99.90
46608;DHT22;32330;51.936;7.184;2023-03-08T13:46:49;3.60;99.90
46608;DHT22;32330;51.936;7.184;2023-03-08T13:49:19;3.60;99.90
46608;DHT22;32330;51.936;7.184;2023-03-08T13:51:50;3.60;99.90
46608;DHT22;32330;51.936;7.184;2023-03-08T13:54:29;3.60;99.90
46608;DHT22;32330;51.936;7.184;2023-03-08T13:56:59;3.70;99.90
46608;DHT22;32330;51.936;7.184;2023-03-08T13:59:27;3.60;99.90
46608;DHT22;32330;51.936;7.184;2023-03-08T14:01:55;3.60;99.90
46608;DHT22;32330;51.936;7.184;2023-03-08T14:04:24;3.80;99.90
46608;DHT22;32330;51.936;7.184;2023-03-08T14:06:53;3.90;99.90
46608;DHT22;32330;51.936;7.184;2023-03-08T14:09:20;3.80;99.90
46608;DHT22;32330;51.936;7.184;2023-03-08T14:11:55;3.70;99.90
46608;DHT22;32330;51.936;7.184;2023-03-08T14:14:27;3.70;99.90
46608;DHT22;32330;51.936;7.184;2023-03-08T14:16:55;3.70;99.90
46608;DHT22;32330;51.936;7.184;2023-03-08T14:19:24;3.80;99.90
46608;DHT22;32330;51.936;7.184;2023-03-08T14:21:54;3.70;99.90
46608;DHT22;32330;51.936;7.184;2023-03-08T14:24:23;3.70;99.90
46608;DHT22;32330;51.936;7.184;2023-03-08T14:26:56;3.80;99.90
46608;DHT22;32330;51.936;7.184;2023-03-08T14:29:27;3.80;99.90
46608;DHT22;32330;51.936;7.184;2023-03-08T14:32:00;3.70;87.10
46608;DHT22;32330;51.936;7.184;2023-03-08T14:34:30;3.70;77.20
46608;DHT22;32330;51.936;7.184;2023-03-08T14:37:01;3.70;80.10
46608;DHT22;32330;51.936;7.184;2023-03-08T14:39:33;3.80;79.80
46608;DHT22;32330;51.936;7.184;2023-03-08T14:42:16;3.70;66.70
46608;DHT22;32330;51.936;7.184;2023-03-08T14:44:50;3.80;80.50
46608;DHT22;32330;51.936;7.184;2023-03-08T14:47:21;3.80;72.10
46608;DHT22;32330;51.936;7.184;2023-03-08T14:49:59;3.80;74.20
46608;DHT22;32330;51.936;7.184;2023-03-08T14:52:27;3.80;75.00
46608;DHT22;32330;51.936;7.184;2023-03-08T14:54:55;3.90;81.20
46608;DHT22;32330;51.936;7.184;2023-03-08T14:57:23;3.90;78.10
46608;DHT22;32330;51.936;7.184;2023-03-08T14:59:52;3.90;80.70
46608;DHT22;32330;51.936;7.184;2023-03-08T15:02:20;3.80;82.40
46608;DHT22;32330;51.936;7.184;2023-03-08T15:04:47;3.80;81.90
46608;DHT22;32330;51.936;7.184;2023-03-08T15:07:17;3.70;82.90
46608;DHT22;32330;51.936;7.184;2023-03-08T15:09:45;3.60;80.80
46608;DHT22;32330;51.936;7.184;2023-03-08T15:12:12;3.70;90.40
46608;DHT22;32330;51.936;7.184;2023-03-08T15:14:39;3.70;91.00
46608;DHT22;32330;51.936;7.184;2023-03-08T15:17:07;3.70;91.60
46608;DHT22;32330;51.936;7.184;2023-03-08T15:19:34;3.60;92.90
46608;DHT22;32330;51.936;7.184;2023-03-08T15:22:03;3.60;92.70
46608;DHT22;32330;51.936;7.184;2023-03-08T15:24:30;3.70;97.50
46608;DHT22;32330;51.936;7.184;2023-03-08T15:26:57;3.70;95.40
46608;DHT22;32330;51.936;7.184;2023-03-08T15:29:27;3.70;95.70
46608;DHT22;32330;51.936;7.184;2023-03-08T15:31:55;3.70;95.20
46608;DHT22;32330;51.936;7.184;2023-03-08T15:34:24;3.70;96.50
46608;DHT22;32330;51.936;7.184;2023-03-08T15:36:52;3.60;96.20
46608;DHT22;32330;51.936;7.184;2023-03-08T15:39:20;3.50;96.20
46608;DHT22;32330;51.936;7.184;2023-03-08T15:41:47;3.50;96.60
46608;DHT22;32330;51.936;7.184;2023-03-08T15:44:14;3.50;99.00
46608;DHT22;32330;51.936;7.184;2023-03-08T15:46:41;3.60;99.70
46608;DHT22;32330;51.936;7.184;2023-03-08T15:49:09;3.60;98.60
46608;DHT22;32330;51.936;7.184;2023-03-08T15:51:37;3.60;99.20
46608;DHT22;32330;51.936;7.184;2023-03-08T15:54:05;3.60;99.90
46608;DHT22;32330;51.936;7.184;2023-03-08T15:56:32;3.70;99.90
46608;DHT22;32330;51.936;7.184;2023-03-08T15:58:59;3.60;99.90
46608;DHT22;32330;51.936;7.184;2023-03-08T16:01:26;3.60;99.50
46608;DHT22;32330;51.936;7.184;2023-03-08T16:03:54;3.60;99.90
46608;DHT22;32330;51.936;7.184;2023-03-08T16:06:22;3.60;99.70
46608;DHT22;32330;51.936;7.184;2023-03-08T16:08:50;3.60;99.90
46608;DHT22;32330;51.936;7.184;2023-03-08T16:11:18;3.50;99.90
46608;DHT22;32330;51.936;7.184;2023-03-08T16:13:48;3.60;99.90
46608;DHT22;32330;51.936;7.184;2023-03-08T16:16:16;3.50;99.90
46608;DHT22;32330;51.936;7.184;2023-03-08T16:18:43;3.40;99.90
46608;DHT22;32330;51.936;7.184;2023-03-08T16:21:10;3.40;99.90
46608;DHT22;32330;51.936;7.184;2023-03-08T16:23:38;3.30;99.90
46608;DHT22;32330;51.936;7.184;2023-03-08T16:26:09;3.30;99.90
46608;DHT22;32330;51.936;7.184;2023-03-08T16:28:36;3.30;99.90
46608;DHT22;32330;51.936;7.184;2023-03-08T16:31:03;3.30;99.90
46608;DHT22;32330;51.936;7.184;2023-03-08T16:33:30;3.30;99.90
46608;DHT22;32330;51.936;7.184;2023-03-08T16:35:57;3.20;99.90
46608;DHT22;32330;51.936;7.184;2023-03-08T16:38:24;3.10;99.90
46608;DHT22;32330;51.936;7.184;2023-03-08T16:40:51;3.10;99.90
46608;DHT22;32330;51.936;7.184;2023-03-08T16:43:19;3.00;99.90
46608;DHT22;32330;51.936;7.184;2023-03-08T16:45:54;3.00;99.90
46608;DHT22;32330;51.936;7.184;2023-03-08T16:48:23;2.90;99.90
46608;DHT22;32330;51.936;7.184;2023-03-08T16:50:53;2.90;99.90
46608;DHT22;32330;51.936;7.184;2023-03-08T16:53:21;3.00;99.90
46608;DHT22;32330;51.936;7.184;2023-03-08T16:55:48;2.90;99.90
46608;DHT22;32330;51.936;7.184;2023-03-08T16:58:18;2.80;99.90
46608;DHT22;32330;51.936;7.184;2023-03-08T17:00:46;2.80;99.90
46608;DHT22;32330;51.936;7.184;2023-03-08T17:03:13;2.70;99.90
46608;DHT22;32330;51.936;7.184;2023-03-08T17:05:42;2.70;99.90
46608;DHT22;32330;51.936;7.184;2023-03-08T17:08:10;2.70;99.90
46608;DHT22;32330;51.936;7.184;2023-03-08T17:10:38;2.60;99.90
46608;DHT22;32330;51.936;7.184;2023-03-08T17:13:05;2.60;99.90
46608;DHT22;32330;51.936;7.184;2023-03-08T17:15:39;2.50;99.90
46608;DHT22;32330;51.936;7.184;2023-03-08T17:18:06;2.60;99.90
46608;DHT22;32330;51.936;7.184;2023-03-08T17:20:34;2.50;99.90
46608;DHT22;32330;51.936;7.184;2023-03-08T17:23:03;2.50;99.90
46608;DHT22;32330;51.936;7.184;2023-03-08T17:25:32;2.40;99.90
46608;DHT22;32330;51.936;7.184;2023-03-08T17:27:59;2.50;99.90
46608;DHT22;32330;51.936;7.184;2023-03-08T17:30:26;2.30;99.90
46608;DHT22;32330;51.936;7.184;2023-03-08T17:32:54;2.40;99.90
46608;DHT22;32330;51.936;7.184;2023-03-08T17:35:22;2.40;99.90
46608;DHT22;32330;51.936;7.184;2023-03-08T17:37:49;2.40;99.90
46608;DHT22;32330;51.936;7.184;2023-03-08T17:40:17;2.30;99.90
46608;DHT22;32330;51.936;7.184;2023-03-08T17:42:44;2.30;99.90
46608;DHT22;32330;51.936;7.184;2023-03-08T17:45:12;2.30;99.90
46608;DHT22;32330;51.936;7.184;2023-03-08T17:47:39;2.30;99.90
46608;DHT22;32330;51.936;7.184;2023-03-08T17:50:10;2.30;99.90
46608;DHT22;32330;51.936;7.184;2023-03-08T17:52:39;2.20;99.90
46608;DHT22;32330;51.936;7.184;2023-03-08T17:55:06;2.20;99.90
46608;DHT22;32330;51.936;7.184;2023-03-08T17:57:35;2.10;99.90
46608;DHT22;32330;51.936;7.184;2023-03-08T18:00:04;2.10;99.90
46608;DHT22;32330;51.936;7.184;2023-03-08T18:02:31;2.20;99.90
46608;DHT22;32330;51.936;7.184;2023-03-08T18:04:58;2.20;99.90
46608;DHT22;32330;51.936;7.184;2023-03-08T18:07:27;2.20;99.90
46608;DHT22;32330;51.936;7.184;2023-03-08T18:09:53;2.10;99.90
46608;DHT22;32330;51.936;7.184;2023-03-08T18:12:20;2.10;99.90
46608;DHT22;32330;51.936;7.184;2023-03-08T18:14:47;2.10;99.90
46608;DHT22;32330;51.936;7.184;2023-03-08T18:17:17;2.00;99.90
46608;DHT22;32330;51.936;7.184;2023-03-08T18:19:44;2.00;99.90
46608;DHT22;32330;51.936;7.184;2023-03-08T18:22:11;2.00;99.90
46608;DHT22;32330;51.936;7.184;2023-03-08T18:24:40;1.90;99.90
46608;DHT22;32330;51.936;7.184;2023-03-08T18:27:07;2.00;99.90
46608;DHT22;32330;51.936;7.184;2023-03-08T18:29:34;2.00;99.90
46608;DHT22;32330;51.936;7.184;2023-03-08T18:32:02;2.00;99.90
46608;DHT22;32330;51.936;7.184;2023-03-08T18:34:29;2.00;99.90
46608;DHT22;32330;51.936;7.184;2023-03-08T18:36:56;2.00;99.90
46608;DHT22;32330;51.936;7.184;2023-03-08T18:39:24;2.00;99.90
46608;DHT22;32330;51.936;7.184;2023-03-08T18:41:53;2.00;99.90
46608;DHT22;32330;51.936;7.184;2023-03-08T18:44:21;2.00;99.90
46608;DHT22;32330;51.936;7.184;2023-03-08T18:46:49;2.00;99.90
46608;DHT22;32330;51.936;7.184;2023-03-08T18:49:15;1.90;99.90
46608;DHT22;32330;51.936;7.184;2023-03-08T18:51:42;1.90;99.90
46608;DHT22;32330;51.936;7.184;2023-03-08T18:54:11;1.90;99.90
46608;DHT22;32330;51.936;7.184;2023-03-08T18:56:39;1.90;99.90
46608;DHT22;32330;51.936;7.184;2023-03-08T18:59:09;2.00;99.90
46608;DHT22;32330;51.936;7.184;2023-03-08T19:01:36;1.90;99.90
46608;DHT22;32330;51.936;7.184;2023-03-08T19:04:04;1.90;99.90
46608;DHT22;32330;51.936;7.184;2023-03-08T19:06:33;2.00;99.90
46608;DHT22;32330;51.936;7.184;2023-03-08T19:09:06;1.90;99.90
46608;DHT22;32330;51.936;7.184;2023-03-08T19:11:34;1.90;99.90
46608;DHT22;32330;51.936;7.184;2023-03-08T19:14:01;1.90;99.90
46608;DHT22;32330;51.936;7.184;2023-03-08T19:16:31;1.90;99.90
46608;DHT22;32330;51.936;7.184;2023-03-08T19:18:59;1.90;99.90
46608;DHT22;32330;51.936;7.184;2023-03-08T19:21:28;1.90;99.90
46608;DHT22;32330;51.936;7.184;2023-03-08T19:23:56;1.90;99.90
46608;DHT22;32330;51.936;7.184;2023-03-08T19:26:25;1.80;99.90
46608;DHT22;32330;51.936;7.184;2023-03-08T19:29:09;1.80;99.90
46608;DHT22;32330;51.936;7.184;2023-03-08T19:31:39;1.80;99.90
46608;DHT22;32330;51.936;7.184;2023-03-08T19:34:07;1.80;99.90
46608;DHT22;32330;51.936;7.184;2023-03-08T19:36:35;1.80;99.90
46608;DHT22;32330;51.936;7.184;2023-03-08T19:39:04;1.80;99.90
46608;DHT22;32330;51.936;7.184;2023-03-08T19:41:31;1.80;99.90
46608;DHT22;32330;51.936;7.184;2023-03-08T19:43:58;1.70;99.90
46608;DHT22;32330;51.936;7.184;2023-03-08T19:46:25;1.80;99.90
46608;DHT22;32330;51.936;7.184;2023-03-08T19:48:53;1.90;99.90
46608;DHT22;32330;51.936;7.184;2023-03-08T19:51:20;1.80;99.90
46608;DHT22;32330;51.936;7.184;2023-03-08T19:53:47;1.80;99.90
46608;DHT22;32330;51.936;7.184;2023-03-08T19:56:16;1.80;99.90
46608;DHT22;32330;51.936;7.184;2023-03-08T19:58:44;1.80;99.90
46608;DHT22;32330;51.936;7.184;2023-03-08T20:01:15;1.80;99.90
46608;DHT22;32330;51.936;7.184;2023-03-08T20:03:42;1.80;99.90
46608;DHT22;32330;51.936;7.184;2023-03-08T20:06:20;1.90;99.90
46608;DHT22;32330;51.936;7.184;2023-03-08T20:08:47;1.80;99.90
46608;DHT22;32330;51.936;7.184;2023-03-08T20:11:14;1.90;99.90
46608;DHT22;32330;51.936;7.184;2023-03-08T20:13:41;1.80;99.90
46608;DHT22;32330;51.936;7.184;2023-03-08T20:16:08;1.80;99.90
46608;DHT22;32330;51.936;7.184;2023-03-08T20:18:35;1.80;99.90
46608;DHT22;32330;51.936;7.184;2023-03-08T20:21:02;1.80;99.90
46608;DHT22;32330;51.936;7.184;2023-03-08T20:23:30;1.80;99.90
46608;DHT22;32330;51.936;7.184;2023-03-08T20:25:57;1.80;99.90
46608;DHT22;32330;51.936;7.184;2023-03-08T20:28:24;1.90;99.90
46608;DHT22;32330;51.936;7.184;2023-03-08T20:30:52;1.90;99.90
46608;DHT22;32330;51.936;7.184;2023-03-08T20:33:19;1.90;99.90
46608;DHT22;32330;51.936;7.184;2023-03-08T20:35:54;1.90;99.90
46608;DHT22;32330;51.936;7.184;2023-03-08T20:38:21;1.90;99.90
46608;DHT22;32330;51.936;7.184;2023-03-08T20:40:58;1.90;99.90
46608;DHT22;32330;51.936;7.184;2023-03-08T20:43:25;1.90;99.90
46608;DHT22;32330;51.936;7.184;2023-03-08T20:45:52;1.90;99.90
46608;DHT22;32330;51.936;7.184;2023-03-08T20:48:19;1.80;99.90
46608;DHT22;32330;51.936;7.184;2023-03-08T20:50:46;1.90;99.90
46608;DHT22;32330;51.936;7.184;2023-03-08T20:53:13;1.90;99.90